createdAt,value
2018-11-26T00:01:27.097Z,4.10
2018-11-26T00:03:54.486Z,2.40
2018-11-26T00:06:21.901Z,2.37
2018-11-26T00:08:49.261Z,2.30
2018-11-26T00:11:32.983Z,5.70
2018-11-26T00:14:00.506Z,2.43
2018-11-26T00:16:28.408Z,2.57
2018-11-26T00:18:55.872Z,4.80
2018-11-26T00:21:23.256Z,2.43
2018-11-26T00:23:50.616Z,4.27
2018-11-26T00:26:17.997Z,6.83
2018-11-26T00:28:46.370Z,3.37
2018-11-26T00:31:12.778Z,5.67
2018-11-26T00:33:40.137Z,2.43
2018-11-26T00:36:07.664Z,2.70
2018-11-26T00:38:35.016Z,2.80
2018-11-26T00:41:02.503Z,2.60
2018-11-26T00:43:30.128Z,4.33
2018-11-26T00:45:57.804Z,4.70
2018-11-26T00:48:26.073Z,4.58
2018-11-26T00:50:53.424Z,4.53
2018-11-26T00:53:20.806Z,4.10
2018-11-26T00:55:48.155Z,2.93
2018-11-26T00:58:15.528Z,2.57
2018-11-26T01:00:42.890Z,3.90
2018-11-26T01:03:10.296Z,4.10
2018-11-26T01:05:38.967Z,2.77
2018-11-26T01:08:06.512Z,4.07
2018-11-26T01:10:34.056Z,3.63
2018-11-26T01:13:01.657Z,2.20
2018-11-26T01:15:29.500Z,8.53
2018-11-26T01:17:57.066Z,2.53
2018-11-26T01:20:24.423Z,3.27
2018-11-26T01:22:51.802Z,3.87
2018-11-26T01:25:19.144Z,2.90
2018-11-26T01:27:46.528Z,2.93
2018-11-26T01:30:13.876Z,2.57
2018-11-26T01:32:41.389Z,2.60
2018-11-26T01:35:08.826Z,2.60
2018-11-26T01:37:36.213Z,2.17
2018-11-26T01:40:04.293Z,2.40
2018-11-26T01:42:31.832Z,2.27
2018-11-26T01:44:59.668Z,2.27
2018-11-26T01:47:27.285Z,2.43
2018-11-26T01:49:54.694Z,2.50
2018-11-26T01:52:22.060Z,2.93
2018-11-26T01:54:49.408Z,2.03
2018-11-26T01:57:16.787Z,3.57
2018-11-26T01:59:44.166Z,6.43
2018-11-26T02:02:11.524Z,2.70
2018-11-26T02:04:38.943Z,2.53
2018-11-26T02:07:06.304Z,3.53
2018-11-26T02:09:33.788Z,2.00
2018-11-26T02:12:01.465Z,3.03
2018-11-26T02:14:29.110Z,2.80
2018-11-26T02:16:56.610Z,2.43
2018-11-26T02:19:23.985Z,2.93
2018-11-26T02:21:51.355Z,2.53
2018-11-26T02:24:18.739Z,5.20
2018-11-26T02:26:46.081Z,2.63
2018-11-26T02:29:13.464Z,2.30
2018-11-26T02:31:40.818Z,2.23
2018-11-26T02:34:08.322Z,2.43
2018-11-26T02:36:35.759Z,2.73
2018-11-26T02:39:04.308Z,3.70
2018-11-26T02:41:31.953Z,2.23
2018-11-26T02:43:59.793Z,2.50
2018-11-26T02:46:30.285Z,2.50
2018-11-26T02:48:57.934Z,2.53
2018-11-26T02:51:25.291Z,1.83
2018-11-26T02:53:52.753Z,2.97
2018-11-26T02:56:20.109Z,2.70
2018-11-26T02:58:53.875Z,4.17
2018-11-26T03:01:21.222Z,3.60
2018-11-26T03:03:48.612Z,3.73
2018-11-26T03:06:15.963Z,2.90
2018-11-26T03:08:43.368Z,2.80
2018-11-26T03:11:10.729Z,2.40
2018-11-26T03:13:38.228Z,2.70
2018-11-26T03:16:06.163Z,2.37
2018-11-26T03:18:33.693Z,3.17
2018-11-26T03:21:01.330Z,4.13
2018-11-26T03:23:29.814Z,2.40
2018-11-26T03:25:57.157Z,3.43
2018-11-26T03:28:24.535Z,3.27
2018-11-26T03:30:51.878Z,3.40
2018-11-26T03:33:19.264Z,2.90
2018-11-26T03:35:46.648Z,3.67
2018-11-26T03:38:14.953Z,2.60
2018-11-26T03:40:42.305Z,2.70
2018-11-26T03:43:09.792Z,2.40
2018-11-26T03:45:37.138Z,2.17
2018-11-26T03:48:04.601Z,2.20
2018-11-26T03:50:32.274Z,3.20
2018-11-26T03:52:59.921Z,2.50
2018-11-26T03:55:27.312Z,1.97
2018-11-26T03:57:54.681Z,2.40
2018-11-26T04:00:22.066Z,2.00
2018-11-26T04:02:49.413Z,4.67
2018-11-26T04:05:16.841Z,2.60
2018-11-26T04:07:44.189Z,4.20
2018-11-26T04:10:11.991Z,3.20
2018-11-26T04:12:39.461Z,4.30
2018-11-26T04:15:08.081Z,3.07
2018-11-26T04:17:35.624Z,2.73
2018-11-26T04:20:03.340Z,2.27
2018-11-26T04:22:31.021Z,3.63
2018-11-26T04:24:58.484Z,1.67
2018-11-26T04:27:25.903Z,2.50
2018-11-26T04:29:53.260Z,3.43
2018-11-26T04:32:20.612Z,3.13
2018-11-26T04:34:48.039Z,2.50
2018-11-26T04:37:15.396Z,2.47
2018-11-26T04:39:42.783Z,2.40
2018-11-26T04:42:10.245Z,2.30
2018-11-26T04:44:37.718Z,3.67
2018-11-26T04:47:05.303Z,2.97
2018-11-26T04:49:32.863Z,2.37
2018-11-26T04:52:00.507Z,3.83
2018-11-26T04:54:27.952Z,3.03
2018-11-26T04:56:55.373Z,3.60
2018-11-26T04:59:22.750Z,3.00
2018-11-26T05:01:50.099Z,2.87
2018-11-26T05:04:17.473Z,3.60
2018-11-26T05:06:44.833Z,2.90
2018-11-26T05:09:12.213Z,2.77
2018-11-26T05:11:39.651Z,3.60
2018-11-26T05:14:07.237Z,2.97
2018-11-26T05:16:34.851Z,3.47
2018-11-26T05:19:02.758Z,3.07
2018-11-26T05:21:30.252Z,3.47
2018-11-26T05:23:57.625Z,3.40
2018-11-26T05:26:24.966Z,3.80
2018-11-26T05:28:52.359Z,3.10
2018-11-26T05:31:19.716Z,4.07
2018-11-26T05:33:47.092Z,2.77
2018-11-26T05:36:14.470Z,4.27
2018-11-26T05:38:42.636Z,4.10
2018-11-26T05:41:10.166Z,8.20
2018-11-26T05:43:37.846Z,10.63
2018-11-26T05:46:05.470Z,46.33
2018-11-26T05:48:33.164Z,215.43
2018-11-26T05:51:01.228Z,207.30
2018-11-26T05:53:28.886Z,158.97
2018-11-26T05:55:56.258Z,115.43
2018-11-26T05:58:24.336Z,116.00
2018-11-26T06:00:51.964Z,90.10
2018-11-26T06:03:22.072Z,79.00
2018-11-26T06:05:59.159Z,71.50
2018-11-26T06:08:26.575Z,54.07
2018-11-26T06:10:53.960Z,45.27
2018-11-26T06:13:21.320Z,38.17
2018-11-26T06:15:48.679Z,49.00
2018-11-26T06:18:16.025Z,28.17
2018-11-26T06:20:43.400Z,27.23
2018-11-26T06:23:10.897Z,29.17
2018-11-26T06:25:38.326Z,37.13
2018-11-26T06:28:05.873Z,26.40
2018-11-26T06:30:33.548Z,32.60
2018-11-26T06:33:01.021Z,22.23
2018-11-26T06:35:28.502Z,24.00
2018-11-26T06:37:55.844Z,25.50
2018-11-26T06:40:23.262Z,17.47
2018-11-26T06:42:50.617Z,21.30
2018-11-26T06:45:19.608Z,15.30
2018-11-26T06:47:46.943Z,18.13
2018-11-26T06:50:15.704Z,18.57
2018-11-26T06:52:43.273Z,14.63
2018-11-26T06:55:11.343Z,16.07
2018-11-26T06:57:38.909Z,18.73
2018-11-26T07:00:08.064Z,15.30
2018-11-26T07:02:35.634Z,16.63
2018-11-26T07:05:03.650Z,15.80
2018-11-26T07:07:31.000Z,12.23
2018-11-26T07:09:58.364Z,15.27
2018-11-26T07:12:25.719Z,12.53
2018-11-26T07:14:53.086Z,9.77
2018-11-26T07:17:20.439Z,12.13
2018-11-26T07:19:47.837Z,11.50
2018-11-26T07:22:15.185Z,9.53
2018-11-26T07:24:42.700Z,11.40
2018-11-26T07:27:10.069Z,10.40
2018-11-26T07:29:37.541Z,11.20
2018-11-26T07:32:05.355Z,19.93
2018-11-26T07:34:33.046Z,8.27
2018-11-26T07:37:00.424Z,7.97
2018-11-26T07:39:27.824Z,13.00
2018-11-26T07:41:55.194Z,8.30
2018-11-26T07:44:22.575Z,11.73
2018-11-26T07:46:49.923Z,9.47
2018-11-26T07:49:17.286Z,7.90
2018-11-26T07:51:44.643Z,6.57
2018-11-26T07:54:12.160Z,11.77
2018-11-26T07:56:39.741Z,8.80
2018-11-26T07:59:07.300Z,7.83
2018-11-26T08:01:35.151Z,19.73
2018-11-26T08:04:02.859Z,7.03
2018-11-26T08:06:30.301Z,8.33
2018-11-26T08:08:57.667Z,8.83
2018-11-26T08:11:25.037Z,7.30
2018-11-26T08:13:52.379Z,7.43
2018-11-26T08:16:19.762Z,8.77
2018-11-26T08:18:47.369Z,12.83
2018-11-26T08:21:14.921Z,7.60
2018-11-26T08:23:42.419Z,9.33
2018-11-26T08:26:09.906Z,9.93
2018-11-26T08:28:37.421Z,5.23
2018-11-26T08:31:05.483Z,5.83
2018-11-26T08:33:32.981Z,6.37
2018-11-26T08:36:05.784Z,7.30
2018-11-26T08:39:38.068Z,5.73
2018-11-26T08:42:11.287Z,6.83
2018-11-26T08:44:45.372Z,5.70
2018-11-26T08:47:23.108Z,5.00
2018-11-26T08:49:50.914Z,4.37
2018-11-26T08:52:18.332Z,4.33
2018-11-26T08:54:45.726Z,7.80
2018-11-26T08:57:13.257Z,6.33
2018-11-26T08:59:40.686Z,3.70
2018-11-26T09:02:10.374Z,6.00
2018-11-26T09:04:43.317Z,5.80
2018-11-26T09:07:10.853Z,6.00
2018-11-26T09:09:38.399Z,8.67
2018-11-26T09:12:06.181Z,8.10
2018-11-26T09:14:33.835Z,5.77
2018-11-26T09:17:01.201Z,7.00
2018-11-26T09:19:28.527Z,4.93
2018-11-26T09:21:55.904Z,6.87
2018-11-26T09:24:23.250Z,6.50
2018-11-26T09:26:50.646Z,5.87
2018-11-26T09:29:17.993Z,5.30
2018-11-26T09:31:45.444Z,6.40
2018-11-26T09:34:12.793Z,10.90
2018-11-26T09:36:40.322Z,5.97
2018-11-26T09:39:11.542Z,4.97
2018-11-26T09:41:40.155Z,4.53
2018-11-26T09:44:07.398Z,5.20
2018-11-26T09:46:35.161Z,4.27
2018-11-26T09:49:02.510Z,5.60
2018-11-26T09:51:29.884Z,5.20
2018-11-26T09:53:57.244Z,4.83
2018-11-26T09:56:24.616Z,8.67
2018-11-26T09:58:51.951Z,3.90
2018-11-26T10:01:19.325Z,5.43
2018-11-26T10:03:46.670Z,10.93
2018-11-26T10:06:14.196Z,4.37
2018-11-26T10:08:41.691Z,4.87
2018-11-26T10:11:09.170Z,4.63
2018-11-26T10:13:36.853Z,5.93
2018-11-26T10:16:04.487Z,4.50
2018-11-26T10:18:31.827Z,4.83
2018-11-26T10:20:59.198Z,6.73
2018-11-26T10:23:26.536Z,4.67
2018-11-26T10:25:53.895Z,3.87
2018-11-26T10:28:21.247Z,6.17
2018-11-26T10:30:48.607Z,5.80
2018-11-26T10:33:16.140Z,7.33
2018-11-26T10:35:43.543Z,9.60
2018-11-26T10:38:11.143Z,9.13
2018-11-26T10:40:38.616Z,8.10
2018-11-26T10:43:11.564Z,7.83
2018-11-26T10:45:34.522Z,6.37
2018-11-26T10:48:01.901Z,7.43
2018-11-26T10:50:29.269Z,4.93
2018-11-26T10:52:58.047Z,4.10
2018-11-26T10:55:31.146Z,4.53
2018-11-26T10:57:58.511Z,5.17
2018-11-26T11:00:31.333Z,5.43
2018-11-26T11:02:58.737Z,6.17
2018-11-26T11:05:26.103Z,7.30
2018-11-26T11:07:53.477Z,4.30
2018-11-26T11:10:28.001Z,5.60
2018-11-26T11:12:55.354Z,7.10
2018-11-26T11:15:22.691Z,5.10
2018-11-26T11:17:50.056Z,7.93
2018-11-26T11:20:18.826Z,6.23
2018-11-26T11:22:46.337Z,7.43
2018-11-26T11:25:14.113Z,6.43
2018-11-26T11:30:19.148Z,6.83
2018-11-26T11:32:46.604Z,7.37
2018-11-26T11:35:14.291Z,5.57
2018-11-26T11:37:42.073Z,4.57
2018-11-26T11:40:15.161Z,5.87
2018-11-26T11:42:42.765Z,6.17
2018-11-26T11:45:10.758Z,5.07
2018-11-26T11:47:38.528Z,7.13
2018-11-26T11:50:08.185Z,3.87
2018-11-26T11:52:36.002Z,4.57
2018-11-26T11:55:04.013Z,5.72
2018-11-26T11:57:31.427Z,7.87
2018-11-26T11:59:58.775Z,7.63
2018-11-26T12:02:26.172Z,5.97
2018-11-26T12:04:53.518Z,3.90
2018-11-26T12:07:20.900Z,5.57
2018-11-26T12:09:48.262Z,6.10
2018-11-26T12:12:15.699Z,5.00
2018-11-26T12:14:43.251Z,6.30
2018-11-26T12:17:10.857Z,5.33
2018-11-26T12:19:38.554Z,6.33
2018-11-26T12:22:06.178Z,6.23
2018-11-26T12:24:33.532Z,5.30
2018-11-26T12:27:00.912Z,6.63
2018-11-26T12:29:28.268Z,4.43
2018-11-26T12:31:55.663Z,5.90
2018-11-26T12:34:23.044Z,4.80
2018-11-26T12:36:50.450Z,4.53
2018-11-26T12:39:17.921Z,4.97
2018-11-26T12:41:45.312Z,5.40
2018-11-26T12:44:12.886Z,5.00
2018-11-26T12:46:40.486Z,5.70
2018-11-26T12:49:08.312Z,5.33
2018-11-26T12:51:35.698Z,6.17
2018-11-26T12:54:03.060Z,6.30
2018-11-26T12:56:30.429Z,9.10
2018-11-26T12:58:57.784Z,6.20
2018-11-26T13:01:25.128Z,7.40
2018-11-26T13:03:52.782Z,7.77
2018-11-26T13:06:19.933Z,5.67
2018-11-26T13:08:47.462Z,6.17
2018-11-26T13:11:14.836Z,6.70
2018-11-26T13:13:42.742Z,6.87
2018-11-26T13:16:10.377Z,4.20
2018-11-26T13:18:38.142Z,5.03
2018-11-26T13:21:05.492Z,5.60
2018-11-26T13:23:32.904Z,6.10
2018-11-26T13:26:00.243Z,5.10
2018-11-26T13:28:27.705Z,5.43
2018-11-26T13:30:55.051Z,5.00
2018-11-26T13:33:22.435Z,4.77
2018-11-26T13:35:49.838Z,4.00
2018-11-26T13:38:17.439Z,4.57
2018-11-26T13:40:44.960Z,7.60
2018-11-26T13:43:13.283Z,7.43
2018-11-26T13:45:45.177Z,5.40
2018-11-26T13:48:13.542Z,5.00
2018-11-26T13:50:42.771Z,6.50
2018-11-26T13:53:10.496Z,5.23
2018-11-26T13:55:38.276Z,7.03
2018-11-26T13:58:05.659Z,5.07
2018-11-26T14:00:33.030Z,7.57
2018-11-26T14:03:00.465Z,5.60
2018-11-26T14:05:27.812Z,5.27
2018-11-26T14:07:55.241Z,5.13
2018-11-26T14:10:25.191Z,5.70
2018-11-26T14:12:54.265Z,6.40
2018-11-26T14:15:21.641Z,5.17
2018-11-26T14:17:49.101Z,6.00
2018-11-26T14:20:17.066Z,6.73
2018-11-26T14:22:44.625Z,7.43
2018-11-26T14:25:13.653Z,6.67
2018-11-26T14:27:41.385Z,6.17
2018-11-26T14:30:15.886Z,6.58
2018-11-26T14:32:43.350Z,5.00
2018-11-26T14:35:12.111Z,5.20
2018-11-26T14:37:38.797Z,4.30
2018-11-26T14:40:07.562Z,8.23
2018-11-26T14:42:35.012Z,5.23
2018-11-26T14:45:02.366Z,5.10
2018-11-26T14:47:29.735Z,6.67
2018-11-26T14:49:57.154Z,7.60
2018-11-26T14:52:24.568Z,6.03
2018-11-26T14:54:51.936Z,6.10
2018-11-26T14:57:19.493Z,6.33
2018-11-26T14:59:46.834Z,6.70
2018-11-26T15:02:14.345Z,4.70
2018-11-26T15:04:42.149Z,5.73
2018-11-26T15:07:09.898Z,5.37
2018-11-26T15:09:37.281Z,5.60
2018-11-26T15:12:04.730Z,5.67
2018-11-26T15:14:32.102Z,4.80
2018-11-26T15:16:59.453Z,5.43
2018-11-26T15:19:26.839Z,6.37
2018-11-26T15:21:54.195Z,4.87
2018-11-26T15:24:21.571Z,4.17
2018-11-26T15:26:53.246Z,6.23
2018-11-26T15:29:16.714Z,6.40
2018-11-26T15:31:44.066Z,6.53
2018-11-26T15:34:11.878Z,5.93
2018-11-26T15:36:39.698Z,6.67
2018-11-26T15:39:08.502Z,7.53
2018-11-26T15:41:35.923Z,4.57
2018-11-26T15:44:03.310Z,6.20
2018-11-26T15:46:30.668Z,7.03
2018-11-26T15:48:58.044Z,8.80
2018-11-26T15:51:25.406Z,5.67
2018-11-26T15:53:52.793Z,6.10
2018-11-26T15:56:20.222Z,5.20
2018-11-26T15:58:47.614Z,7.20
2018-11-26T16:01:15.120Z,5.67
2018-11-26T16:03:42.747Z,6.50
2018-11-26T16:06:10.325Z,5.73
2018-11-26T16:08:37.716Z,6.27
2018-11-26T16:11:05.087Z,7.70
2018-11-26T16:13:32.474Z,7.10
2018-11-26T16:15:59.827Z,5.37
2018-11-26T16:18:27.199Z,5.23
2018-11-26T16:20:54.555Z,6.37
2018-11-26T16:23:21.938Z,6.10
2018-11-26T16:25:49.634Z,5.67
2018-11-26T16:28:17.937Z,8.63
2018-11-26T16:30:45.429Z,6.23
2018-11-26T16:33:13.272Z,7.90
2018-11-26T16:35:42.109Z,8.20
2018-11-26T16:38:09.255Z,6.43
2018-11-26T16:40:36.603Z,6.50
2018-11-26T16:43:04.032Z,7.17
2018-11-26T16:45:31.366Z,6.33
2018-11-26T16:47:59.051Z,6.30
2018-11-26T16:50:27.942Z,6.83
2018-11-26T16:52:55.675Z,5.43
2018-11-26T16:55:23.069Z,7.83
2018-11-26T16:57:50.806Z,6.10
2018-11-26T17:00:18.737Z,6.75
2018-11-26T17:02:46.653Z,10.03
2018-11-26T17:05:14.889Z,6.53
2018-11-26T17:07:42.526Z,8.10
2018-11-26T17:10:10.521Z,8.53
2018-11-26T17:12:38.224Z,5.90
2018-11-26T17:15:06.710Z,5.70
2018-11-26T17:17:34.171Z,7.10
2018-11-26T17:20:01.563Z,9.13
2018-11-26T17:22:28.918Z,8.47
2018-11-26T17:24:56.317Z,6.70
2018-11-26T17:27:23.751Z,11.10
2018-11-26T17:29:51.439Z,11.13
2018-11-26T17:32:19.630Z,10.43
2018-11-26T17:34:48.135Z,9.70
2018-11-26T17:37:15.754Z,10.00
2018-11-26T17:39:43.519Z,12.30
2018-11-26T17:42:11.342Z,7.57
2018-11-26T17:44:38.740Z,8.50
2018-11-26T17:47:06.146Z,10.70
2018-11-26T17:49:33.524Z,9.07
2018-11-26T17:52:00.902Z,11.50
2018-11-26T17:54:28.284Z,8.37
2018-11-26T17:56:55.652Z,8.30
2018-11-26T17:59:23.020Z,8.63
2018-11-26T18:01:50.497Z,11.60
2018-11-26T18:04:17.924Z,6.00
2018-11-26T18:06:47.446Z,8.57
2018-11-26T18:09:13.097Z,8.83
2018-11-26T18:11:40.686Z,11.50
2018-11-26T18:14:08.049Z,6.37
2018-11-26T18:16:35.554Z,8.53
2018-11-26T18:19:02.912Z,7.67
2018-11-26T18:21:30.299Z,9.87
2018-11-26T18:23:57.671Z,6.87
2018-11-26T18:26:25.210Z,7.70
2018-11-26T18:28:52.641Z,12.93
2018-11-26T18:31:20.041Z,6.80
2018-11-26T18:33:47.559Z,9.63
2018-11-26T18:36:15.202Z,9.90
2018-11-26T18:38:43.005Z,11.20
2018-11-26T18:41:10.483Z,6.60
2018-11-26T18:43:37.896Z,11.37
2018-11-26T18:46:05.306Z,9.67
2018-11-26T18:48:32.795Z,9.93
2018-11-26T18:51:00.192Z,8.80
2018-11-26T18:53:27.937Z,9.43
2018-11-26T18:55:55.333Z,7.30
2018-11-26T18:58:22.943Z,10.30
2018-11-26T19:00:51.301Z,8.57
2018-11-26T19:03:20.795Z,8.13
2018-11-26T19:05:49.100Z,7.50
2018-11-26T19:08:16.739Z,8.10
2018-11-26T19:10:44.576Z,8.70
2018-11-26T19:13:13.241Z,8.90
2018-11-26T19:15:41.338Z,11.37
2018-11-26T19:18:10.785Z,10.80
2018-11-26T19:20:38.170Z,7.93
2018-11-26T19:23:05.861Z,12.27
2018-11-26T19:25:39.677Z,12.57
2018-11-26T19:28:07.056Z,8.13
2018-11-26T19:30:34.472Z,14.50
2018-11-26T19:33:02.594Z,8.17
2018-11-26T19:35:30.085Z,7.43
2018-11-26T19:37:57.535Z,12.83
2018-11-26T19:40:25.131Z,9.57
2018-11-26T19:42:52.613Z,9.17
2018-11-26T19:45:20.836Z,11.80
2018-11-26T19:47:48.433Z,12.03
2018-11-26T19:50:16.511Z,7.93
2018-11-26T19:52:44.602Z,11.73
2018-11-26T19:55:14.901Z,6.00
2018-11-26T19:57:42.522Z,12.63
2018-11-26T20:00:10.931Z,9.67
2018-11-26T20:02:38.357Z,10.63
2018-11-26T20:05:08.374Z,8.30
2018-11-26T20:07:36.106Z,9.27
2018-11-26T20:10:04.093Z,8.03
2018-11-26T20:12:31.486Z,11.03
2018-11-26T20:14:58.861Z,8.30
2018-11-26T20:17:26.273Z,11.03
2018-11-26T20:19:53.741Z,11.10
2018-11-26T20:22:21.157Z,10.10
2018-11-26T20:24:48.585Z,8.17
2018-11-26T20:27:16.268Z,10.33
2018-11-26T20:29:44.001Z,11.50
2018-11-26T20:32:11.442Z,9.73
2018-11-26T20:34:38.874Z,8.80
2018-11-26T20:37:06.381Z,10.17
2018-11-26T20:39:33.776Z,8.57
2018-11-26T20:42:01.207Z,9.13
2018-11-26T20:44:28.605Z,10.40
2018-11-26T20:46:55.976Z,8.37
2018-11-26T20:49:30.094Z,11.50
2018-11-26T20:51:57.553Z,12.87
2018-11-26T20:54:25.055Z,23.10
2018-11-26T20:56:52.475Z,14.40
2018-11-26T20:59:20.038Z,8.80
2018-11-26T21:01:47.748Z,9.50
2018-11-26T21:04:15.602Z,10.27
2018-11-26T21:06:43.217Z,17.57
2018-11-26T21:09:10.802Z,15.73
2018-11-26T21:11:38.220Z,16.40
2018-11-26T21:14:05.653Z,17.20
2018-11-26T21:16:33.070Z,24.53
2018-11-26T21:19:00.500Z,16.23
2018-11-26T21:21:27.875Z,13.57
2018-11-26T21:23:55.390Z,16.60
2018-11-26T21:26:22.872Z,21.67
2018-11-26T21:28:50.339Z,11.50
2018-11-26T21:31:17.869Z,26.63
2018-11-26T21:33:45.659Z,15.63
2018-11-26T21:36:13.346Z,15.07
2018-11-26T21:38:40.905Z,16.00
2018-11-26T21:41:08.297Z,9.40
2018-11-26T21:43:35.723Z,13.87
2018-11-26T21:46:03.147Z,13.40
2018-11-26T21:48:30.593Z,16.40
2018-11-26T21:50:57.989Z,12.03
2018-11-26T21:53:25.696Z,16.33
2018-11-26T21:55:53.205Z,16.40
2018-11-26T21:58:20.684Z,11.20
2018-11-26T22:00:48.805Z,19.07
2018-11-26T22:03:16.567Z,13.30
2018-11-26T22:05:44.689Z,13.50
2018-11-26T22:08:12.275Z,10.80
2018-11-26T22:10:40.126Z,19.70
2018-11-26T22:13:08.067Z,18.30
2018-11-26T22:15:35.446Z,18.40
2018-11-26T22:18:02.815Z,15.97
2018-11-26T22:20:30.639Z,25.43
2018-11-26T22:22:58.001Z,18.57
2018-11-26T22:25:25.563Z,17.57
2018-11-26T22:27:53.238Z,15.77
2018-11-26T22:30:23.246Z,13.77
2018-11-26T22:32:50.773Z,16.17
2018-11-26T22:35:18.401Z,16.27
2018-11-26T22:37:46.251Z,15.43
2018-11-26T22:40:14.397Z,25.83
2018-11-26T22:42:41.935Z,15.43
2018-11-26T22:45:10.180Z,12.07
2018-11-26T22:47:37.542Z,17.53
2018-11-26T22:50:06.168Z,11.00
2018-11-26T22:52:33.531Z,15.50
2018-11-26T22:55:00.918Z,16.03
2018-11-26T22:57:28.286Z,17.57
2018-11-26T22:59:55.785Z,21.50
2018-11-26T23:02:23.159Z,15.90
2018-11-26T23:04:50.655Z,11.27
2018-11-26T23:07:18.411Z,16.70
2018-11-26T23:09:46.338Z,17.87
2018-11-26T23:12:13.802Z,10.33
2018-11-26T23:14:41.196Z,15.70
2018-11-26T23:17:08.552Z,15.77
2018-11-26T23:19:35.933Z,12.73
2018-11-26T23:22:03.285Z,12.77
2018-11-26T23:24:30.673Z,8.70
2018-11-26T23:26:58.022Z,12.27
2018-11-26T23:29:25.541Z,12.50
2018-11-26T23:31:52.985Z,8.87
2018-11-26T23:34:20.486Z,8.80
2018-11-26T23:36:48.029Z,12.67
2018-11-26T23:39:15.734Z,10.17
2018-11-26T23:41:43.172Z,12.17
2018-11-26T23:44:10.535Z,13.23
2018-11-26T23:46:37.926Z,8.67
2018-11-26T23:49:05.410Z,7.50
2018-11-26T23:51:32.785Z,11.47
2018-11-26T23:54:00.133Z,12.00
2018-11-26T23:56:27.537Z,10.77
2018-11-26T23:58:54.914Z,9.83
